Stephen L. — WDE7070 — position and weather

sailwx.info

Track history (hours):
 
Tides and Currents Weather Stations Pressure Air Temp Water Temp Dewpoint Dewpoint Depression Visibility Wind Speed Wind Dir Waves Ship Positions

Stephen L.

More information available from US FCC via Universal Licensing System and Coast Guard Vessel Documentation Center.

Last reported at 2014-Aug-15 23:33 UTC. Time now 2014-Sep-01 11:26 UTC.
Position N 29°51' W 091°25'.
Warning: this ship's position is 16 days out of date.

Length 20 m.

Type: Ship. MMSI: 367388580.

Date/timePositionNaut miles runAvg speedWind from/ knotsBaromVisibWave heightAir tempDewpointWater temp
2014-Aug-15 23:33N 29°51' W 091°25'6 6.2
2014-Aug-15 22:33N 29°46' W 091°20'6 5.9
2014-Aug-15 21:33N 29°45' W 091°14'5 4.5
2014-Aug-15 20:33N 29°40' W 091°14'5 4.8
2014-Aug-15 19:33N 29°41' W 091°08'2 2.2
2014-Aug-15 18:33N 29°40' W 091°06'0 0.0
2014-Aug-15 17:33N 29°40' W 091°06'1 0.7
2014-Aug-15 16:19N 29°40' W 091°06'0 0.0
2014-Aug-15 15:26N 29°40' W 091°06'0 0.0
2014-Aug-15 10:27N 29°40' W 091°06'0 0.0
2014-Aug-15 09:33N 29°40' W 091°06'2 2.3
2014-Aug-15 08:33N 29°38' W 091°07'6 5.6
2014-Aug-15 07:33N 29°41' W 091°12'2 1.6
2014-Aug-15 06:33N 29°40' W 091°14'3 3.4
2014-Aug-15 05:33N 29°44' W 091°14'7 7.1
2014-Aug-15 04:33N 29°47' W 091°21'9 8.4
2014-Aug-15 03:32N 29°54' W 091°27'  
2014-Aug-10 09:33N 30°00' W 091°29'5 5.3
2014-Aug-10 08:33N 29°55' W 091°28'5 5.3
2014-Aug-10 07:33N 29°51' W 091°24'5 5.4
2014-Aug-10 06:33N 29°47' W 091°21'5 5.2
2014-Aug-10 05:33N 29°46' W 091°15'5 4.9
2014-Aug-10 04:33N 29°41' W 091°13'1 0.8
2014-Aug-10 03:33N 29°40' W 091°14'5 5.0
2014-Aug-10 02:33N 29°40' W 091°08'2 1.8
2014-Aug-10 01:33N 29°40' W 091°06'0 0.5
2014-Aug-10 00:33N 29°40' W 091°06'0 0.4
2014-Aug-09 23:33N 29°40' W 091°06'0 0.0
2014-Aug-09 22:33N 29°40' W 091°06'5 5.1
2014-Aug-09 21:30N 29°37' W 091°00'6 6.6
2014-Aug-09 20:33N 29°33' W 090°55'13 5.4
2014-Aug-09 18:07N 29°36' W 090°40'4 6.5
2014-Aug-09 17:33N 29°35' W 090°36'4 4.4
2014-Aug-09 16:33N 29°33' W 090°32'4 4.1
2014-Aug-09 15:33N 29°33' W 090°27'4 3.8
2014-Aug-09 14:27N 29°34' W 090°22'1 0.0
2014-Aug-07 23:10N 29°34' W 090°23'4 6.9
2014-Aug-07 22:32N 29°34' W 090°28'7 7.1
2014-Aug-07 21:33N 29°35' W 090°36'6 4.8
2014-Aug-07 20:21N 29°35' W 090°43'13 6.1
2014-Aug-07 18:17N 29°35' W 090°58'6 7.3
2014-Aug-07 17:31N 29°37' W 091°03'6 6.5
2014-Aug-07 16:33N 29°41' W 091°09'3 2.5
2014-Aug-07 15:33N 29°41' W 091°12'0 0.3
2014-Aug-07 14:33N 29°41' W 091°12'3 2.9
2014-Aug-07 13:34N 29°40' W 091°14'7 6.6
2014-Aug-07 12:33N 29°39' W 091°22'6 6.2
2014-Aug-07 11:32N 29°41' W 091°29'0 0.2
2014-Aug-07 10:34N 29°41' W 091°28'1 0.8
2014-Aug-07 09:23N 29°41' W 091°29'1 1.7
2014-Aug-07 08:33N 29°42' W 091°31'5 5.4
2014-Aug-07 07:33N 29°45' W 091°36'  
Track history (hours):
 
Tides and Currents Weather Stations Pressure Air Temp Water Temp Dewpoint Dewpoint Depression Visibility Wind Speed Wind Dir Waves Ship Positions

Stephen L.

More information available from US FCC via Universal Licensing System and Coast Guard Vessel Documentation Center.

Last reported at 2014-Aug-15 23:33 UTC. Time now 2014-Sep-01 11:26 UTC.
Position N 29°51' W 091°25'.
Warning: this ship's position is 16 days out of date.

Length 20 m.

Type: Ship. MMSI: 367388580.

Date/timePositionNaut miles runAvg speedWind from/ knotsBaromVisibWave heightAir tempDewpointWater temp
2014-Aug-15 23:33N 29°51' W 091°25'6 6.2
2014-Aug-15 22:33N 29°46' W 091°20'6 5.9
2014-Aug-15 21:33N 29°45' W 091°14'5 4.5
2014-Aug-15 20:33N 29°40' W 091°14'5 4.8
2014-Aug-15 19:33N 29°41' W 091°08'2 2.2
2014-Aug-15 18:33N 29°40' W 091°06'0 0.0
2014-Aug-15 17:33N 29°40' W 091°06'1 0.7
2014-Aug-15 16:19N 29°40' W 091°06'0 0.0
2014-Aug-15 15:26N 29°40' W 091°06'0 0.0
2014-Aug-15 10:27N 29°40' W 091°06'0 0.0
2014-Aug-15 09:33N 29°40' W 091°06'2 2.3
2014-Aug-15 08:33N 29°38' W 091°07'6 5.6
2014-Aug-15 07:33N 29°41' W 091°12'2 1.6
2014-Aug-15 06:33N 29°40' W 091°14'3 3.4
2014-Aug-15 05:33N 29°44' W 091°14'7 7.1
2014-Aug-15 04:33N 29°47' W 091°21'9 8.4
2014-Aug-15 03:32N 29°54' W 091°27'  
2014-Aug-10 09:33N 30°00' W 091°29'5 5.3
2014-Aug-10 08:33N 29°55' W 091°28'5 5.3
2014-Aug-10 07:33N 29°51' W 091°24'5 5.4
2014-Aug-10 06:33N 29°47' W 091°21'5 5.2
2014-Aug-10 05:33N 29°46' W 091°15'5 4.9
2014-Aug-10 04:33N 29°41' W 091°13'1 0.8
2014-Aug-10 03:33N 29°40' W 091°14'5 5.0
2014-Aug-10 02:33N 29°40' W 091°08'2 1.8
2014-Aug-10 01:33N 29°40' W 091°06'0 0.5
2014-Aug-10 00:33N 29°40' W 091°06'0 0.4
2014-Aug-09 23:33N 29°40' W 091°06'0 0.0
2014-Aug-09 22:33N 29°40' W 091°06'5 5.1
2014-Aug-09 21:30N 29°37' W 091°00'6 6.6
2014-Aug-09 20:33N 29°33' W 090°55'13 5.4
2014-Aug-09 18:07N 29°36' W 090°40'4 6.5
2014-Aug-09 17:33N 29°35' W 090°36'4 4.4
2014-Aug-09 16:33N 29°33' W 090°32'4 4.1
2014-Aug-09 15:33N 29°33' W 090°27'4 3.8
2014-Aug-09 14:27N 29°34' W 090°22'1 0.0
2014-Aug-07 23:10N 29°34' W 090°23'4 6.9
2014-Aug-07 22:32N 29°34' W 090°28'7 7.1
2014-Aug-07 21:33N 29°35' W 090°36'6 4.8
2014-Aug-07 20:21N 29°35' W 090°43'13 6.1
2014-Aug-07 18:17N 29°35' W 090°58'6 7.3
2014-Aug-07 17:31N 29°37' W 091°03'6 6.5
2014-Aug-07 16:33N 29°41' W 091°09'3 2.5
2014-Aug-07 15:33N 29°41' W 091°12'0 0.3
2014-Aug-07 14:33N 29°41' W 091°12'3 2.9
2014-Aug-07 13:34N 29°40' W 091°14'7 6.6
2014-Aug-07 12:33N 29°39' W 091°22'6 6.2
2014-Aug-07 11:32N 29°41' W 091°29'0 0.2
2014-Aug-07 10:34N 29°41' W 091°28'1 0.8
2014-Aug-07 09:23N 29°41' W 091°29'1 1.7
2014-Aug-07 08:33N 29°42' W 091°31'5 5.4
2014-Aug-07 07:33N 29°45' W 091°36'  

Dump ship's entire track history